Time;durP1;ratioP1;P1;durP2;ratioP2;P2;SDS_P1;SDS_P2;PMS_P1;PMS_P2;Temp;Humidity;BMP_temperature;BMP_pressure;BME280_temperature;BME280_humidity;BME280_pressure;Samples;Min_cycle;Max_cycle;Signal;HPM_P1;HPM_P2
2021/12/12 00:01:27;;;;;;;5.03;2.22;;;21.90;31.80;;;;;;5045507;28;20324;-56
2021/12/12 00:04:04;;;;;;;3.10;1.75;;;21.90;31.70;;;;;;5047414;28;20044;-52
2021/12/12 00:06:34;;;;;;;3.58;2.10;;;21.90;31.70;;;;;;5050021;28;20025;-46
2021/12/12 00:09:10;;;;;;;2.83;1.88;;;21.90;31.80;;;;;;5043569;28;20448;-54
2021/12/12 00:11:37;;;;;;;2.72;1.70;;;21.90;31.80;;;;;;5050498;28;20424;-57
2021/12/12 00:14:14;;;;;;;2.63;1.58;;;21.90;31.80;;;;;;5043318;28;20017;-56
2021/12/12 00:16:41;;;;;;;3.22;1.92;;;21.90;31.80;;;;;;5052187;28;20082;-51
2021/12/12 00:19:08;;;;;;;3.33;1.70;;;21.90;31.80;;;;;;5046053;28;20028;-55
2021/12/12 00:21:36;;;;;;;2.95;1.80;;;21.90;31.80;;;;;;5053985;28;20302;-50
2021/12/12 00:24:04;;;;;;;3.90;2.17;;;21.90;31.80;;;;;;5049872;28;20025;-53
2021/12/12 00:26:29;;;;;;;3.28;1.70;;;21.80;31.70;;;;;;5053992;28;20106;-51
2021/12/12 00:28:55;;;;;;;3.28;2.10;;;21.80;31.70;;;;;;5021300;28;20118;-54
2021/12/12 00:31:23;;;;;;;3.30;2.00;;;21.90;31.80;;;;;;5043222;28;20082;-48
2021/12/12 00:33:53;;;;;;;2.70;1.80;;;21.80;31.70;;;;;;5041645;28;20033;-51
2021/12/12 00:36:19;;;;;;;3.58;1.92;;;21.80;31.70;;;;;;5053261;28;20032;-56
2021/12/12 00:38:53;;;;;;;3.53;1.95;;;21.80;31.80;;;;;;5042792;28;20033;-56
2021/12/12 00:41:27;;;;;;;3.33;1.92;;;21.80;31.80;;;;;;5021001;28;20045;-51
2021/12/12 00:43:55;;;;;;;3.08;1.60;;;21.80;31.80;;;;;;5046452;28;20089;-54
2021/12/12 00:46:22;;;;;;;3.08;1.45;;;21.80;31.80;;;;;;5053735;28;20055;-51
2021/12/12 00:48:50;;;;;;;3.05;1.88;;;21.80;31.80;;;;;;5040830;28;20022;-54
2021/12/12 00:51:18;;;;;;;3.67;1.92;;;21.80;31.80;;;;;;5052539;28;20305;-51
2021/12/12 00:53:45;;;;;;;3.22;1.73;;;21.80;31.80;;;;;;5035183;28;20353;-53
2021/12/12 00:56:11;;;;;;;3.15;1.70;;;21.80;31.80;;;;;;5036152;28;20052;-50
2021/12/12 00:58:37;;;;;;;3.72;1.90;;;21.80;31.80;;;;;;5050302;28;20056;-52
2021/12/12 01:01:16;;;;;;;4.65;2.00;;;21.80;31.80;;;;;;5039307;28;20040;-50
2021/12/12 01:04:05;;;;;;;2.53;1.55;;;21.70;31.80;;;;;;5049825;28;20044;-54
2021/12/12 01:06:31;;;;;;;3.30;1.42;;;21.70;31.80;;;;;;5041672;28;20120;-54
2021/12/12 01:09:02;;;;;;;2.42;1.60;;;21.80;32.00;;;;;;5029719;28;20021;-55
2021/12/12 01:11:37;;;;;;;2.42;1.55;;;21.70;32.00;;;;;;5047669;28;20029;-57
2021/12/12 01:14:10;;;;;;;3.58;1.88;;;21.80;32.00;;;;;;5037519;28;20021;-53
2021/12/12 01:16:46;;;;;;;3.50;1.52;;;21.70;31.90;;;;;;5040088;28;20021;-50
2021/12/12 01:19:19;;;;;;;3.25;1.58;;;21.80;32.00;;;;;;5037254;28;20124;-57
2021/12/12 01:21:49;;;;;;;3.65;1.80;;;21.80;32.00;;;;;;5040024;28;20162;-57
2021/12/12 01:24:24;;;;;;;2.78;1.27;;;21.70;31.90;;;;;;5035220;28;20102;-54
2021/12/12 01:26:51;;;;;;;2.70;1.60;;;21.70;31.90;;;;;;5025384;28;20396;-52
2021/12/12 01:29:17;;;;;;;2.35;1.20;;;21.70;31.90;;;;;;5033029;28;20190;-50
2021/12/12 01:31:47;;;;;;;3.03;1.67;;;21.70;31.90;;;;;;5041198;28;20103;-55
2021/12/12 01:34:16;;;;;;;3.20;1.42;;;21.70;31.90;;;;;;5043730;28;20071;-55
2021/12/12 01:39:28;;;;;;;3.13;1.30;;;21.70;31.90;;;;;;5046282;28;20021;-51
2021/12/12 01:42:09;;;;;;;3.00;1.60;;;21.70;31.90;;;;;;5048655;28;20090;-49
2021/12/12 01:44:58;;;;;;;2.65;1.30;;;21.70;31.80;;;;;;5037642;28;20024;-56
2021/12/12 01:47:31;;;;;;;2.17;1.20;;;21.70;31.80;;;;;;5040855;28;20075;-56
2021/12/12 01:50:02;;;;;;;2.63;1.17;;;21.70;31.90;;;;;;5040545;28;20017;-60
2021/12/12 01:52:29;;;;;;;2.85;1.30;;;21.70;31.90;;;;;;5051502;28;20324;-50
2021/12/12 01:55:08;;;;;;;4.05;1.52;;;21.70;31.90;;;;;;5050265;28;21457;-57
2021/12/12 01:57:36;;;;;;;2.28;1.42;;;21.70;31.90;;;;;;5040629;28;20017;-55
2021/12/12 02:00:11;;;;;;;1.90;1.15;;;21.70;31.90;;;;;;5036988;28;20091;-56
2021/12/12 02:02:37;;;;;;;4.22;1.90;;;21.70;31.90;;;;;;5046771;28;20158;-56
2021/12/12 02:05:12;;;;;;;2.63;1.52;;;21.60;31.90;;;;;;5043151;28;20024;-55
2021/12/12 02:07:43;;;;;;;3.38;1.48;;;21.60;31.90;;;;;;5046217;28;20025;-51
2021/12/12 02:10:15;;;;;;;3.05;1.40;;;21.60;31.90;;;;;;5047660;28;20021;-51
2021/12/12 02:12:41;;;;;;;2.97;1.30;;;21.60;31.90;;;;;;5045526;28;20029;-52
2021/12/12 02:15:10;;;;;;;3.15;1.30;;;21.60;31.90;;;;;;5043519;28;20031;-51
2021/12/12 02:17:42;;;;;;;2.17;1.20;;;21.60;31.90;;;;;;5036083;28;20079;-54
2021/12/12 02:20:21;;;;;;;2.13;1.10;;;21.60;32.00;;;;;;5039957;28;20021;-56
2021/12/12 02:36:22;;;;;;;3.13;1.45;;;21.60;32.00;;;;;;5046419;28;20029;-52
2021/12/12 02:38:52;;;;;;;2.47;1.30;;;21.60;32.10;;;;;;5048071;28;20025;-53
2021/12/12 02:41:21;;;;;;;4.05;1.30;;;21.60;32.10;;;;;;5018626;28;20041;-59
2021/12/12 02:43:56;;;;;;;2.63;1.17;;;21.60;32.10;;;;;;5039120;28;20021;-55
2021/12/12 02:46:28;;;;;;;3.58;1.48;;;21.60;32.10;;;;;;5043951;28;20039;-55
2021/12/12 02:49:06;;;;;;;2.90;1.42;;;21.50;32.10;;;;;;5043385;28;20385;-57
2021/12/12 02:51:32;;;;;;;2.20;1.30;;;21.50;32.10;;;;;;5045036;28;20033;-56
2021/12/12 02:53:59;;;;;;;3.13;1.40;;;21.60;32.80;;;;;;5034567;28;20025;-58
2021/12/12 02:56:34;;;;;;;3.63;1.50;;;21.50;32.10;;;;;;5044258;28;20059;-50
2021/12/12 02:59:07;;;;;;;3.15;1.48;;;21.50;32.10;;;;;;5039871;28;20483;-55
2021/12/12 03:01:48;;;;;;;2.77;1.43;;;21.50;32.10;;;;;;5047933;28;20111;-55
2021/12/12 03:04:14;;;;;;;2.83;1.13;;;21.50;32.20;;;;;;5047871;28;20108;-55
2021/12/12 03:06:42;;;;;;;2.65;1.20;;;21.50;32.20;;;;;;5045158;28;20072;-51
2021/12/12 03:09:21;;;;;;;2.85;1.15;;;21.50;32.20;;;;;;5037834;28;20025;-54
2021/12/12 03:11:50;;;;;;;2.55;1.13;;;21.50;32.20;;;;;;5040693;28;20040;-56
2021/12/12 03:14:17;;;;;;;2.55;1.17;;;21.50;32.20;;;;;;5049169;28;20053;-55
2021/12/12 03:16:44;;;;;;;2.75;1.45;;;21.50;32.20;;;;;;5038150;28;20036;-57
2021/12/12 03:19:11;;;;;;;2.50;1.10;;;21.50;32.20;;;;;;5040841;28;20020;-55
2021/12/12 03:21:42;;;;;;;3.40;1.58;;;21.50;32.30;;;;;;5050232;28;20447;-51
2021/12/12 03:24:24;;;;;;;3.28;1.33;;;21.50;32.30;;;;;;5053401;28;20423;-50
2021/12/12 03:26:56;;;;;;;2.25;1.20;;;21.50;32.30;;;;;;5046833;28;20104;-56
2021/12/12 03:29:23;;;;;;;3.22;1.55;;;21.50;32.40;;;;;;5052967;28;20039;-53
2021/12/12 03:31:57;;;;;;;2.58;1.15;;;21.50;32.40;;;;;;5045926;28;20092;-55
2021/12/12 03:34:31;;;;;;;3.00;1.17;;;21.50;32.40;;;;;;5038080;28;20033;-55
2021/12/12 03:36:58;;;;;;;2.55;1.42;;;21.50;32.40;;;;;;5032421;28;20029;-55
2021/12/12 03:39:33;;;;;;;2.63;1.10;;;21.40;32.40;;;;;;5046310;28;20060;-55
2021/12/12 03:42:02;;;;;;;2.85;1.20;;;21.40;32.40;;;;;;5044866;28;20021;-55
2021/12/12 03:44:31;;;;;;;1.90;0.93;;;21.40;32.50;;;;;;5037858;28;20025;-51
2021/12/12 03:47:05;;;;;;;2.33;1.10;;;21.40;32.50;;;;;;5052024;28;20086;-54
2021/12/12 03:49:37;;;;;;;3.15;1.65;;;21.40;32.50;;;;;;5046367;28;20086;-56
2021/12/12 03:52:06;;;;;;;2.58;1.40;;;21.40;32.60;;;;;;5040236;28;20044;-49
2021/12/12 03:54:32;;;;;;;1.77;1.10;;;21.40;32.60;;;;;;5038001;28;20030;-51
2021/12/12 03:56:58;;;;;;;1.75;1.00;;;21.40;32.70;;;;;;5046022;28;20028;-55
2021/12/12 03:59:24;;;;;;;2.70;1.42;;;21.40;32.70;;;;;;5048424;28;20068;-54
2021/12/12 04:01:51;;;;;;;2.60;1.05;;;21.40;32.70;;;;;;5047388;28;20435;-53
2021/12/12 04:04:27;;;;;;;1.63;0.90;;;21.40;33.40;;;;;;5051210;28;20028;-48
2021/12/12 04:06:54;;;;;;;2.60;1.10;;;21.40;32.80;;;;;;5049191;28;20030;-52
2021/12/12 04:09:21;;;;;;;2.15;1.00;;;21.40;32.90;;;;;;5051161;28;20167;-56
2021/12/12 04:11:54;;;;;;;2.13;0.90;;;21.40;32.90;;;;;;5046263;28;20041;-53
2021/12/12 04:14:22;;;;;;;2.00;0.90;;;21.40;32.90;;;;;;5050190;28;20122;-55
2021/12/12 04:16:55;;;;;;;2.22;1.13;;;21.40;32.90;;;;;;5044727;28;20143;-52
2021/12/12 04:19:21;;;;;;;1.43;1.03;;;21.40;32.90;;;;;;5049477;28;20032;-53
2021/12/12 04:21:48;;;;;;;1.77;1.10;;;21.40;33.00;;;;;;5045959;28;20356;-57
2021/12/12 04:24:26;;;;;;;2.25;0.93;;;21.40;33.00;;;;;;5040350;28;20024;-56
2021/12/12 04:26:53;;;;;;;2.13;0.90;;;21.40;33.10;;;;;;5045404;28;20446;-56
2021/12/12 04:29:26;;;;;;;2.45;0.98;;;21.40;33.10;;;;;;5046657;28;20440;-55
2021/12/12 04:31:56;;;;;;;1.58;0.70;;;21.40;33.10;;;;;;5052011;28;20143;-58
2021/12/12 04:34:25;;;;;;;1.75;1.00;;;21.40;33.10;;;;;;5038224;28;20451;-54
2021/12/12 04:36:53;;;;;;;1.77;0.80;;;21.30;33.10;;;;;;5041318;28;20052;-51
2021/12/12 04:39:25;;;;;;;1.58;0.77;;;21.30;33.10;;;;;;5051215;28;20086;-59
2021/12/12 04:41:57;;;;;;;1.05;0.63;;;21.30;33.10;;;;;;5046756;28;20115;-56
2021/12/12 04:44:26;;;;;;;1.30;0.80;;;21.30;33.10;;;;;;5039329;28;20102;-53
2021/12/12 04:50:21;;;;;;;1.45;0.82;;;21.30;33.20;;;;;;5045894;28;20128;-54
2021/12/12 04:52:59;;;;;;;1.70;0.80;;;21.30;33.20;;;;;;5048588;28;20012;-52
2021/12/12 04:55:33;;;;;;;2.15;0.70;;;21.30;33.20;;;;;;5045471;28;20022;-56
2021/12/12 04:58:37;;;;;;;0.93;0.63;;;21.30;33.20;;;;;;5045037;28;20041;-51
2021/12/12 05:01:17;;;;;;;1.15;0.70;;;21.30;33.20;;;;;;5046871;28;20842;-51
2021/12/12 05:03:46;;;;;;;1.35;0.90;;;21.30;33.30;;;;;;5048516;28;20028;-54
2021/12/12 05:06:21;;;;;;;1.00;0.60;;;21.30;33.30;;;;;;5049348;28;20033;-56
2021/12/12 05:08:55;;;;;;;1.27;0.70;;;21.30;33.30;;;;;;5042575;28;20021;-52
2021/12/12 05:11:28;;;;;;;2.55;0.80;;;21.30;33.30;;;;;;5044712;28;20428;-54
2021/12/12 05:14:00;;;;;;;0.80;0.68;;;21.30;33.40;;;;;;5044394;28;20029;-59
2021/12/12 05:16:32;;;;;;;1.58;0.80;;;21.30;33.40;;;;;;5036025;28;20025;-53
2021/12/12 05:19:28;;;;;;;1.38;0.65;;;21.30;33.40;;;;;;5038072;28;20037;-52
2021/12/12 05:22:06;;;;;;;0.82;0.55;;;21.30;33.40;;;;;;5031255;28;20080;-51
2021/12/12 05:24:33;;;;;;;1.27;0.55;;;21.30;33.40;;;;;;5043953;28;20028;-53
2021/12/12 05:27:06;;;;;;;1.13;0.68;;;21.30;33.50;;;;;;5039276;28;20041;-55
2021/12/12 05:29:39;;;;;;;1.73;0.90;;;21.30;33.50;;;;;;5044018;28;20040;-54
2021/12/12 05:32:08;;;;;;;1.35;0.60;;;21.30;33.60;;;;;;5042015;28;20025;-52
2021/12/12 05:34:37;;;;;;;1.15;0.68;;;21.30;33.60;;;;;;5046234;28;20104;-54
2021/12/12 05:37:04;;;;;;;1.05;0.68;;;21.30;33.60;;;;;;5050261;28;20374;-56
2021/12/12 05:39:32;;;;;;;0.70;0.60;;;21.30;33.60;;;;;;5045319;28;20412;-56
2021/12/12 05:41:59;;;;;;;1.23;0.70;;;21.30;33.60;;;;;;5036992;28;20033;-51
2021/12/12 05:44:27;;;;;;;1.67;0.70;;;21.30;33.70;;;;;;5044694;28;20129;-52
2021/12/12 05:46:56;;;;;;;0.90;0.60;;;21.30;33.70;;;;;;5043799;28;20032;-55
2021/12/12 05:49:21;;;;;;;1.02;0.68;;;21.30;33.70;;;;;;5043603;28;20104;-56
2021/12/12 05:51:47;;;;;;;0.82;0.50;;;21.30;33.70;;;;;;5041801;28;20081;-53
2021/12/12 05:54:13;;;;;;;0.88;0.50;;;21.20;33.80;;;;;;5042662;28;20031;-54
2021/12/12 05:56:40;;;;;;;1.17;0.60;;;21.20;33.80;;;;;;5041151;28;20114;-55
2021/12/12 05:59:10;;;;;;;1.13;0.57;;;21.30;33.80;;;;;;5043404;28;20051;-55
2021/12/12 06:01:38;;;;;;;0.85;0.68;;;21.30;33.80;;;;;;5041431;28;20051;-56
2021/12/12 06:04:04;;;;;;;1.25;0.60;;;21.30;33.90;;;;;;5040363;28;20432;-55
2021/12/12 06:06:36;;;;;;;1.15;0.73;;;21.30;33.90;;;;;;5046217;28;20339;-53
2021/12/12 06:09:04;;;;;;;1.00;0.50;;;21.20;33.90;;;;;;5050871;28;20385;-54
2021/12/12 06:11:33;;;;;;;0.88;0.52;;;21.20;33.90;;;;;;5044500;28;20067;-51
2021/12/12 06:14:01;;;;;;;0.73;0.40;;;21.20;33.90;;;;;;5035365;28;20037;-53
2021/12/12 06:16:30;;;;;;;0.93;0.47;;;21.30;34.00;;;;;;5043788;28;20335;-54
2021/12/12 06:19:00;;;;;;;0.80;0.50;;;21.30;34.10;;;;;;5047100;28;20040;-54
2021/12/12 06:21:26;;;;;;;1.20;0.60;;;21.20;34.00;;;;;;5049133;28;20021;-53
2021/12/12 06:23:53;;;;;;;0.85;0.52;;;21.20;34.00;;;;;;5028514;28;20592;-51
2021/12/12 06:26:20;;;;;;;0.98;0.45;;;21.20;34.10;;;;;;5042850;28;20021;-52
2021/12/12 06:28:48;;;;;;;0.70;0.50;;;21.20;34.10;;;;;;5036141;28;20029;-50
2021/12/12 06:31:15;;;;;;;0.55;0.50;;;21.20;34.10;;;;;;5037323;28;20053;-55
2021/12/12 06:33:41;;;;;;;1.42;0.60;;;21.20;34.10;;;;;;5046088;28;20383;-49
2021/12/12 06:36:09;;;;;;;1.15;0.60;;;21.20;34.20;;;;;;5052501;28;20079;-54
2021/12/12 06:38:38;;;;;;;0.98;0.40;;;21.20;34.20;;;;;;5035462;28;20072;-52
2021/12/12 06:41:06;;;;;;;0.70;0.50;;;21.20;34.20;;;;;;5044925;28;20053;-53
2021/12/12 06:43:33;;;;;;;0.55;0.40;;;21.20;34.20;;;;;;5039263;28;20116;-52
2021/12/12 06:46:00;;;;;;;1.13;0.68;;;21.20;34.30;;;;;;5044964;28;20045;-54
2021/12/12 06:48:27;;;;;;;0.45;0.40;;;21.20;34.30;;;;;;5040207;28;20025;-53
2021/12/12 06:50:55;;;;;;;0.95;0.60;;;21.20;34.30;;;;;;5046534;28;20489;-52
2021/12/12 06:53:23;;;;;;;0.63;0.47;;;21.20;34.30;;;;;;5045081;28;20138;-52
2021/12/12 06:55:50;;;;;;;0.65;0.52;;;21.20;34.30;;;;;;5041766;28;20025;-52
2021/12/12 06:58:18;;;;;;;0.77;0.45;;;21.20;34.40;;;;;;5042539;28;20045;-53
2021/12/12 07:00:48;;;;;;;0.80;0.45;;;21.20;34.40;;;;;;5048975;28;20031;-56
2021/12/12 07:03:16;;;;;;;0.40;0.30;;;21.20;34.40;;;;;;5049867;28;20032;-52
2021/12/12 07:05:42;;;;;;;0.93;0.60;;;21.20;34.60;;;;;;5047762;28;20049;-56
2021/12/12 07:08:08;;;;;;;0.55;0.45;;;21.20;34.60;;;;;;5047898;28;20032;-51
2021/12/12 07:10:34;;;;;;;0.70;0.50;;;21.20;34.60;;;;;;5052439;28;20060;-56
2021/12/12 07:13:02;;;;;;;0.82;0.30;;;21.20;34.70;;;;;;5057352;28;20063;-48
2021/12/12 07:15:34;;;;;;;0.50;0.40;;;21.20;34.70;;;;;;5047040;28;20025;-52
2021/12/12 07:18:06;;;;;;;0.93;0.65;;;21.20;34.70;;;;;;5043387;28;20052;-54
2021/12/12 07:20:33;;;;;;;1.58;0.70;;;21.20;34.70;;;;;;5047797;28;20025;-53
2021/12/12 07:22:59;;;;;;;0.75;0.45;;;21.20;34.70;;;;;;5026933;28;20310;-49
2021/12/12 07:25:24;;;;;;;1.23;0.80;;;21.20;34.70;;;;;;5055504;28;20431;-58
2021/12/12 07:27:51;;;;;;;1.13;0.60;;;21.20;34.90;;;;;;5048081;28;20083;-52
2021/12/12 07:30:18;;;;;;;1.17;0.68;;;21.20;35.00;;;;;;5053122;28;20020;-53
2021/12/12 07:32:47;;;;;;;1.20;0.75;;;21.20;35.00;;;;;;5049257;28;20021;-55
2021/12/12 07:35:14;;;;;;;1.02;0.57;;;21.20;35.00;;;;;;5038694;28;20029;-50
2021/12/12 07:37:42;;;;;;;1.35;0.80;;;21.20;35.00;;;;;;5037751;28;20111;-51
2021/12/12 07:40:10;;;;;;;1.13;0.60;;;21.20;35.00;;;;;;5049813;28;20458;-53
2021/12/12 07:42:36;;;;;;;2.22;0.95;;;21.20;35.00;;;;;;5065413;28;20037;-53
2021/12/12 07:45:05;;;;;;;2.30;1.10;;;21.20;35.00;;;;;;5056357;28;20021;-51
2021/12/12 07:47:31;;;;;;;1.45;0.88;;;21.20;35.00;;;;;;5057801;28;20025;-52
2021/12/12 07:49:57;;;;;;;1.38;0.70;;;21.20;35.00;;;;;;5053975;28;20013;-55
2021/12/12 07:52:27;;;;;;;2.78;1.20;;;21.20;35.10;;;;;;5056988;28;20505;-53
2021/12/12 07:54:55;;;;;;;1.55;0.90;;;21.20;35.10;;;;;;5053793;28;20021;-53
2021/12/12 07:57:24;;;;;;;1.80;0.93;;;21.10;35.00;;;;;;5057542;28;20110;-55
2021/12/12 07:59:53;;;;;;;2.08;1.00;;;21.20;35.10;;;;;;5056969;28;20448;-54
2021/12/12 08:02:20;;;;;;;1.80;1.00;;;21.10;35.10;;;;;;5037175;28;20085;-54
2021/12/12 08:04:47;;;;;;;1.95;1.17;;;21.10;35.10;;;;;;5042664;28;20094;-56
2021/12/12 08:07:16;;;;;;;3.10;0.90;;;21.10;35.10;;;;;;5036913;28;20017;-55
2021/12/12 08:09:43;;;;;;;2.55;1.10;;;21.10;35.20;;;;;;5050618;28;20162;-53
2021/12/12 08:12:20;;;;;;;2.92;1.13;;;21.10;35.30;;;;;;5059548;28;20454;-57
2021/12/12 08:14:47;;;;;;;1.63;0.93;;;21.10;35.30;;;;;;5051168;28;20021;-53
2021/12/12 08:17:14;;;;;;;2.38;0.93;;;21.10;35.30;;;;;;5061786;28;20320;-51
2021/12/12 08:19:40;;;;;;;2.65;1.10;;;21.10;35.40;;;;;;5053864;28;20037;-54
2021/12/12 08:22:11;;;;;;;2.20;1.20;;;21.10;35.40;;;;;;5036482;28;20033;-55
2021/12/12 08:24:37;;;;;;;2.13;1.00;;;21.10;35.40;;;;;;5046488;28;20035;-57
2021/12/12 08:27:06;;;;;;;1.75;0.90;;;21.10;35.50;;;;;;5055202;28;20028;-54
2021/12/12 08:29:33;;;;;;;2.72;1.08;;;21.10;35.50;;;;;;5055244;28;20100;-50
2021/12/12 08:32:02;;;;;;;3.08;0.93;;;21.10;35.60;;;;;;5051585;28;20025;-52
2021/12/12 08:34:28;;;;;;;2.20;1.13;;;21.10;35.60;;;;;;5036897;28;20069;-55
2021/12/12 08:36:58;;;;;;;2.33;1.20;;;21.10;35.70;;;;;;5043738;28;20032;-55
2021/12/12 08:39:27;;;;;;;2.22;1.50;;;21.10;35.80;;;;;;5057622;28;20032;-56
2021/12/12 08:41:55;;;;;;;1.95;1.10;;;21.10;35.90;;;;;;5066912;28;20033;-57
2021/12/12 08:44:23;;;;;;;3.90;1.80;;;21.10;36.10;;;;;;5036635;28;20317;-53
2021/12/12 08:46:51;;;;;;;3.53;1.38;;;21.00;36.20;;;;;;5037697;28;20045;-53
2021/12/12 08:49:20;;;;;;;3.97;1.85;;;21.10;36.40;;;;;;5054579;28;20124;-55
2021/12/12 08:51:50;;;;;;;4.85;2.08;;;21.10;36.60;;;;;;5037669;28;20016;-51
2021/12/12 08:54:28;;;;;;;7.05;2.80;;;21.10;36.60;;;;;;5055146;28;20025;-56
2021/12/12 08:57:10;;;;;;;4.57;2.05;;;21.20;36.70;;;;;;5047879;28;20039;-56
2021/12/12 08:59:39;;;;;;;6.90;3.03;;;21.20;36.70;;;;;;5036373;28;20049;-55
2021/12/12 09:02:09;;;;;;;6.80;2.50;;;21.30;36.70;;;;;;5045191;28;20041;-53
2021/12/12 09:04:40;;;;;;;4.63;2.22;;;21.40;36.80;;;;;;5036661;28;20072;-56
2021/12/12 09:07:16;;;;;;;5.53;2.50;;;21.50;36.70;;;;;;5052304;28;20060;-58
2021/12/12 09:09:52;;;;;;;4.35;2.08;;;21.60;36.60;;;;;;5069622;28;20142;-54
2021/12/12 09:12:20;;;;;;;4.15;2.10;;;21.70;36.50;;;;;;5056111;28;20098;-54
2021/12/12 09:14:53;;;;;;;3.80;1.98;;;21.80;36.40;;;;;;5056282;28;20032;-56
2021/12/12 09:17:28;;;;;;;3.07;1.63;;;21.90;36.30;;;;;;5036728;28;20344;-54
2021/12/12 09:20:03;;;;;;;3.30;1.70;;;22.00;36.20;;;;;;5050667;28;20032;-57
2021/12/12 09:22:48;;;;;;;4.43;1.70;;;22.10;36.10;;;;;;5036302;28;20060;-56
2021/12/12 09:25:14;;;;;;;;;;;22.20;36.00;;;;;;5039877;28;20033;-57
2021/12/12 09:27:44;;;;;;;2.25;1.30;;;22.20;35.90;;;;;;5055661;28;19905;-58
2021/12/12 09:30:14;;;;;;;2.67;1.60;;;22.30;36.00;;;;;;5053449;28;20021;-55
2021/12/12 09:33:12;;;;;;;4.78;1.70;;;22.40;35.90;;;;;;5045155;28;20040;-58
2021/12/12 09:35:54;;;;;;;3.00;1.40;;;22.50;35.80;;;;;;5038851;28;20013;-47
2021/12/12 09:38:25;;;;;;;2.00;1.10;;;22.50;35.60;;;;;;5059264;28;20025;-49
2021/12/12 09:41:23;;;;;;;1.30;0.90;;;22.60;35.40;;;;;;5038492;28;20056;-55
2021/12/12 09:44:29;;;;;;;1.88;0.70;;;22.60;35.00;;;;;;5046979;28;20114;-61
2021/12/12 09:53:06;;;;;;;1.77;1.00;;;22.60;34.90;;;;;;5051081;28;20032;-56
2021/12/12 09:55:52;;;;;;;1.92;1.10;;;22.70;34.90;;;;;;5047387;28;20034;-56
2021/12/12 09:58:48;;;;;;;2.38;1.40;;;22.80;35.00;;;;;;5046890;28;20091;-56
2021/12/12 10:01:17;;;;;;;4.47;2.10;;;22.90;35.10;;;;;;5040660;28;20047;-55
2021/12/12 10:04:17;;;;;;;3.75;2.58;;;23.00;35.40;;;;;;5042717;28;20095;-52
2021/12/12 10:07:08;;;;;;;7.55;4.25;;;23.10;35.70;;;;;;5049771;28;20511;-56
2021/12/12 10:09:41;;;;;;;7.72;4.18;;;23.20;36.10;;;;;;5050290;28;20029;-56
2021/12/12 10:12:18;;;;;;;6.95;3.85;;;23.30;36.30;;;;;;5051672;28;20471;-54
2021/12/12 10:14:43;;;;;;;7.20;3.65;;;23.30;36.40;;;;;;5040028;28;20021;-59
2021/12/12 10:17:12;;;;;;;8.65;3.88;;;23.40;36.50;;;;;;5035063;28;20572;-58
2021/12/12 10:19:41;;;;;;;6.35;3.30;;;23.50;36.60;;;;;;5049213;28;20108;-58
2021/12/12 10:22:44;;;;;;;9.18;3.63;;;23.50;36.90;;;;;;5034390;28;20352;-53
2021/12/12 10:25:14;;;;;;;8.95;3.92;;;23.60;37.10;;;;;;5036992;28;20036;-50
2021/12/12 10:27:45;;;;;;;8.65;4.35;;;23.60;37.40;;;;;;5042294;28;20100;-53
2021/12/12 10:30:18;;;;;;;9.90;4.47;;;23.60;37.70;;;;;;5049678;28;20231;-48
2021/12/12 10:33:03;;;;;;;8.90;4.22;;;23.70;37.90;;;;;;5049707;28;20044;-51
2021/12/12 10:35:35;;;;;;;6.97;3.78;;;23.70;38.00;;;;;;5040703;28;20033;-53
2021/12/12 10:38:41;;;;;;;10.43;4.40;;;23.70;37.90;;;;;;5047751;28;20029;-52
2021/12/12 10:41:14;;;;;;;8.32;4.22;;;23.70;38.00;;;;;;5043101;28;20121;-62
2021/12/12 10:43:45;;;;;;;8.85;2.97;;;23.70;38.20;;;;;;5040690;28;20344;-43
2021/12/12 10:46:40;;;;;;;3.35;1.85;;;23.60;37.40;;;;;;5036608;28;20037;-56
2021/12/12 10:49:13;;;;;;;3.10;1.52;;;23.60;36.70;;;;;;5044381;28;20091;-51
2021/12/12 10:51:55;;;;;;;8.88;2.60;;;23.50;36.60;;;;;;5046077;28;20036;-53
2021/12/12 10:54:49;;;;;;;7.60;3.55;;;23.40;36.90;;;;;;5042667;28;20036;-51
2021/12/12 10:57:20;;;;;;;11.30;4.38;;;23.30;37.90;;;;;;5048933;28;20033;-55
2021/12/12 11:00:22;;;;;;;7.90;4.25;;;23.20;38.70;;;;;;5047463;28;20052;-53
2021/12/12 11:03:01;;;;;;;8.65;4.30;;;23.20;39.60;;;;;;5040501;28;20045;-54
2021/12/12 11:05:42;;;;;;;7.90;4.28;;;23.10;40.00;;;;;;5045620;28;20033;-52
2021/12/12 11:08:24;;;;;;;8.15;4.05;;;23.10;40.40;;;;;;5051072;28;20021;-50
2021/12/12 11:10:53;;;;;;;7.00;3.50;;;23.10;40.60;;;;;;5053366;28;20021;-50
2021/12/12 11:13:32;;;;;;;10.82;3.10;;;23.10;40.60;;;;;;5051645;28;20122;-51
2021/12/12 11:16:06;;;;;;;5.57;2.95;;;23.00;40.40;;;;;;5040016;28;20041;-49
2021/12/12 11:18:54;;;;;;;5.65;2.90;;;23.00;40.20;;;;;;5034328;28;20025;-48
2021/12/12 11:21:34;;;;;;;6.82;2.28;;;23.00;40.00;;;;;;5042039;28;20021;-47
2021/12/12 11:24:07;;;;;;;3.88;2.03;;;23.00;40.00;;;;;;5035725;28;20436;-51
2021/12/12 11:26:40;;;;;;;4.65;2.30;;;22.90;39.80;;;;;;5043174;28;20031;-53
2021/12/12 11:29:17;;;;;;;4.28;1.95;;;22.90;39.60;;;;;;5042708;28;20743;-49
2021/12/12 11:31:52;;;;;;;3.65;1.90;;;22.90;39.50;;;;;;5038509;28;20029;-53
2021/12/12 11:34:19;;;;;;;2.88;1.60;;;22.80;39.40;;;;;;5039741;28;20024;-49
2021/12/12 11:37:03;;;;;;;2.90;1.60;;;22.80;39.40;;;;;;5032872;28;20041;-53
2021/12/12 11:39:50;;;;;;;2.95;1.70;;;22.80;39.30;;;;;;5044018;28;20047;-51
2021/12/12 11:42:33;;;;;;;3.50;1.90;;;22.80;39.30;;;;;;5045036;28;20060;-55
2021/12/12 11:45:25;;;;;;;2.53;1.50;;;22.70;39.10;;;;;;5039107;28;20037;-52
2021/12/12 11:47:58;;;;;;;2.88;1.58;;;22.70;39.10;;;;;;5037587;28;20037;-58
2021/12/12 11:50:43;;;;;;;3.05;1.52;;;22.70;39.10;;;;;;5044971;28;20026;-54
2021/12/12 11:53:15;;;;;;;1.90;1.10;;;22.70;39.10;;;;;;5046150;28;20043;-58
2021/12/12 11:55:54;;;;;;;2.35;1.38;;;22.60;39.10;;;;;;5038920;28;20463;-50
2021/12/12 11:58:32;;;;;;;2.58;1.20;;;22.60;39.00;;;;;;5011389;28;20480;-56
2021/12/12 12:01:16;;;;;;;3.05;1.15;;;22.60;39.00;;;;;;5001116;28;20042;-50
2021/12/12 12:04:36;;;;;;;4.40;1.20;;;22.60;39.00;;;;;;4995465;28;20429;-53
2021/12/12 12:07:19;;;;;;;1.60;1.02;;;22.60;39.00;;;;;;4966270;28;20044;-50
2021/12/12 12:10:02;;;;;;;1.90;1.23;;;22.60;39.10;;;;;;4986144;28;20048;-49
2021/12/12 12:13:01;;;;;;;1.63;1.10;;;22.60;39.10;;;;;;5006337;28;20045;-50
2021/12/12 12:15:52;;;;;;;2.05;1.10;;;22.60;39.10;;;;;;5009292;28;20044;-54
2021/12/12 12:18:30;;;;;;;1.95;1.20;;;22.60;39.10;;;;;;5004552;28;20077;-49
2021/12/12 12:21:11;;;;;;;1.85;1.02;;;22.60;39.10;;;;;;5005382;28;20085;-59
2021/12/12 12:24:39;;;;;;;1.70;1.05;;;22.60;39.20;;;;;;4998859;28;20460;-53
2021/12/12 12:27:14;;;;;;;1.67;1.05;;;22.60;39.30;;;;;;4991588;28;20038;-54
2021/12/12 12:30:05;;;;;;;1.48;1.00;;;22.60;39.30;;;;;;4988742;28;20801;-51
2021/12/12 12:33:08;;;;;;;1.77;1.20;;;22.60;39.40;;;;;;5004392;28;20037;-58
2021/12/12 12:36:24;;;;;;;1.40;0.98;;;22.70;39.40;;;;;;5003916;28;20079;-52
2021/12/12 12:39:24;;;;;;;1.60;0.93;;;22.70;39.40;;;;;;4971808;28;20038;-46
2021/12/12 12:42:21;;;;;;;1.52;0.93;;;22.80;39.40;;;;;;4996414;28;20034;-56
2021/12/12 12:45:14;;;;;;;1.70;0.95;;;22.80;39.50;;;;;;4996180;28;20056;-51
2021/12/12 12:47:40;;;;;;;1.42;0.88;;;22.80;39.50;;;;;;5003556;28;20532;-56
2021/12/12 12:50:31;;;;;;;1.23;0.77;;;22.80;39.40;;;;;;5000537;28;20038;-48
2021/12/12 12:53:16;;;;;;;1.45;0.80;;;22.90;39.40;;;;;;5012531;28;20115;-53
2021/12/12 12:56:19;;;;;;;1.30;0.90;;;22.90;39.40;;;;;;5013796;28;20453;-48
2021/12/12 12:59:22;;;;;;;1.50;0.80;;;23.00;39.30;;;;;;5031341;28;20467;-50
2021/12/12 13:01:59;;;;;;;1.17;0.77;;;23.00;39.20;;;;;;5047232;28;20020;-46
2021/12/12 13:04:33;;;;;;;2.70;0.70;;;23.00;39.20;;;;;;5045763;28;20052;-54
2021/12/12 13:07:33;;;;;;;1.17;0.73;;;23.00;39.10;;;;;;5043721;28;20998;-54
2021/12/12 13:10:12;;;;;;;1.00;0.65;;;23.10;39.10;;;;;;5034479;28;20045;-46
2021/12/12 13:12:44;;;;;;;0.65;0.63;;;23.10;39.10;;;;;;5049856;28;20359;-52
2021/12/12 13:15:44;;;;;;;1.10;0.70;;;23.10;39.00;;;;;;5049309;28;20029;-53
2021/12/12 13:18:40;;;;;;;4.97;0.80;;;23.20;39.00;;;;;;5047449;28;20032;-52
2021/12/12 13:21:21;;;;;;;1.83;0.93;;;23.20;39.00;;;;;;5043304;28;20025;-47
2021/12/12 13:24:09;;;;;;;2.10;1.00;;;23.20;38.90;;;;;;5037757;28;20135;-58
2021/12/12 13:26:55;;;;;;;2.22;0.90;;;23.20;38.90;;;;;;5053641;28;20029;-55
2021/12/12 13:29:31;;;;;;;1.75;0.77;;;23.20;38.90;;;;;;5037443;28;20028;-50
2021/12/12 13:32:07;;;;;;;1.15;0.80;;;23.30;38.90;;;;;;5049864;28;20044;-47
2021/12/12 13:34:33;;;;;;;0.75;0.70;;;23.30;38.90;;;;;;5053685;28;20499;-47
2021/12/12 13:37:27;;;;;;;0.95;0.52;;;23.30;38.90;;;;;;5054991;28;20064;-53
2021/12/12 13:40:22;;;;;;;1.38;0.80;;;23.30;38.80;;;;;;5040235;28;20025;-55
2021/12/12 13:42:51;;;;;;;0.95;0.63;;;23.40;38.80;;;;;;5048020;28;20068;-50
2021/12/12 13:45:29;;;;;;;1.20;0.85;;;23.40;38.80;;;;;;5046584;28;20351;-54
2021/12/12 13:48:11;;;;;;;1.13;0.80;;;23.40;38.70;;;;;;5052586;28;20103;-56
2021/12/12 13:51:12;;;;;;;1.02;0.60;;;23.40;38.70;;;;;;5044269;28;20203;-59